Aviation Digital Data Service (ADDS)

Output produced by METARs form (1230 UTC 30 March 2017)
found at http://aviationweather.gov/adds/metars/
 
KYNG 301120Z 3012/3112 10012G20KT P6SM SCT025 OVC050 
     FM310100 16012KT 5SM -SHRA BR OVC025 
     PROB30 3101/3104 2SM -TSRA BR OVC008CB 
     FM310700 13008KT 4SM -SHRA BR OVC008